createdAt,value
2019-04-30T00:00:55.358Z,94.50
2019-04-30T00:03:29.888Z,95.20
2019-04-30T00:06:03.117Z,96.20
2019-04-30T00:08:39.122Z,96.40
2019-04-30T00:11:15.961Z,96.60
2019-04-30T00:13:46.008Z,96.30
2019-04-30T00:16:19.227Z,94.80
2019-04-30T00:18:59.911Z,96.10
2019-04-30T00:21:27.128Z,95.00
2019-04-30T00:24:00.890Z,95.80
2019-04-30T00:26:35.543Z,94.90
2019-04-30T00:29:08.876Z,95.20
2019-04-30T00:31:41.968Z,95.10
2019-04-30T00:34:15.265Z,93.80
2019-04-30T00:36:48.228Z,94.10
2019-04-30T00:39:21.613Z,95.00
2019-04-30T00:41:56.564Z,95.60
2019-04-30T00:44:29.688Z,94.00
2019-04-30T00:47:04.929Z,92.10
2019-04-30T00:49:38.428Z,93.60
2019-04-30T00:52:11.395Z,93.50
2019-04-30T00:54:45.217Z,95.10
2019-04-30T00:57:18.610Z,95.00
2019-04-30T00:59:51.507Z,96.10
2019-04-30T01:02:31.695Z,95.10
2019-04-30T01:05:05.365Z,94.60
2019-04-30T01:07:39.613Z,93.40
2019-04-30T01:10:15.176Z,93.10
2019-04-30T01:12:50.182Z,94.00
2019-04-30T01:15:23.068Z,93.70
2019-04-30T01:17:56.027Z,94.20
2019-04-30T01:20:32.673Z,94.60
2019-04-30T01:23:09.845Z,94.40
2019-04-30T01:25:38.877Z,94.30
2019-04-30T01:28:16.412Z,93.40
2019-04-30T01:30:47.047Z,92.90
2019-04-30T01:33:20.128Z,93.60
2019-04-30T01:35:53.028Z,93.40
2019-04-30T01:38:28.341Z,93.60
2019-04-30T01:41:01.827Z,95.10
2019-04-30T01:43:34.969Z,94.30
2019-04-30T01:46:13.406Z,94.00
2019-04-30T01:48:47.646Z,94.40
2019-04-30T01:51:21.684Z,94.80
2019-04-30T01:53:53.509Z,94.60
2019-04-30T01:56:28.920Z,94.80
2019-04-30T01:59:10.027Z,94.70
2019-04-30T02:01:44.608Z,95.20
2019-04-30T02:04:19.499Z,94.90
2019-04-30T02:06:52.828Z,93.60
2019-04-30T02:09:25.947Z,93.50
2019-04-30T02:11:59.929Z,93.30
2019-04-30T02:14:33.023Z,93.80
2019-04-30T02:17:06.009Z,93.80
2019-04-30T02:19:39.229Z,93.60
2019-04-30T02:22:12.227Z,93.90
2019-04-30T02:24:45.428Z,95.00
2019-04-30T02:27:19.167Z,95.20
2019-04-30T02:29:53.537Z,94.30
2019-04-30T02:32:26.449Z,94.30
2019-04-30T02:35:10.059Z,94.30
2019-04-30T02:38:02.833Z,94.70
2019-04-30T02:40:36.007Z,95.40
2019-04-30T02:43:09.356Z,94.60
2019-04-30T02:45:43.358Z,94.80
2019-04-30T02:48:16.332Z,94.60
2019-04-30T02:50:49.529Z,95.00
2019-04-30T02:53:22.548Z,94.50
2019-04-30T02:55:55.728Z,95.10
2019-04-30T02:58:29.404Z,95.40
2019-04-30T03:01:02.529Z,95.80
2019-04-30T03:03:36.355Z,97.10
2019-04-30T03:06:11.598Z,96.20
2019-04-30T03:08:44.290Z,96.80
2019-04-30T03:11:20.301Z,96.80
2019-04-30T03:13:52.432Z,96.90
2019-04-30T03:16:33.211Z,97.20
2019-04-30T03:19:14.249Z,97.40
2019-04-30T03:21:50.286Z,97.20
2019-04-30T03:24:23.269Z,97.20
2019-04-30T03:26:56.417Z,96.60
2019-04-30T03:29:30.315Z,96.30
2019-04-30T03:32:04.037Z,97.40
2019-04-30T03:34:41.363Z,97.10
2019-04-30T03:37:11.883Z,96.40
2019-04-30T03:39:44.889Z,96.40
2019-04-30T03:42:19.920Z,96.30
2019-04-30T03:44:52.837Z,96.00
2019-04-30T03:47:26.009Z,96.90
2019-04-30T03:50:00.061Z,96.60
2019-04-30T03:52:34.189Z,96.50
2019-04-30T03:55:09.295Z,96.70
2019-04-30T03:57:41.535Z,96.50
2019-04-30T04:00:16.017Z,96.70
2019-04-30T04:02:50.187Z,96.20
2019-04-30T04:05:25.468Z,94.00
2019-04-30T04:08:00.025Z,94.00
2019-04-30T04:10:34.610Z,95.90
2019-04-30T04:13:07.405Z,94.60
2019-04-30T04:15:40.376Z,94.60
2019-04-30T04:18:14.165Z,95.00
2019-04-30T04:20:50.184Z,95.50
2019-04-30T04:23:22.290Z,94.90
2019-04-30T04:25:55.789Z,95.50
2019-04-30T04:28:29.914Z,95.70
2019-04-30T04:31:03.609Z,96.30
2019-04-30T04:33:39.390Z,96.40
2019-04-30T04:36:11.490Z,96.40
2019-04-30T04:38:44.429Z,95.90
2019-04-30T04:41:19.604Z,96.00
2019-04-30T04:43:53.789Z,96.10
2019-04-30T04:46:26.728Z,95.70
2019-04-30T04:48:59.874Z,97.10
2019-04-30T04:51:38.553Z,97.00
2019-04-30T04:54:10.319Z,96.30
2019-04-30T04:56:42.488Z,95.70
2019-04-30T04:59:15.468Z,95.80
2019-04-30T05:01:49.040Z,97.20
2019-04-30T05:04:22.096Z,96.20
2019-04-30T05:06:55.551Z,96.50
2019-04-30T05:09:28.668Z,95.80
2019-04-30T05:12:01.622Z,96.20
2019-04-30T05:14:35.188Z,97.30
2019-04-30T05:17:09.455Z,97.20
2019-04-30T05:19:42.668Z,96.90
2019-04-30T05:22:15.492Z,97.00
2019-04-30T05:24:48.890Z,96.90
2019-04-30T05:27:22.791Z,97.60
2019-04-30T05:29:55.679Z,97.20
2019-04-30T05:32:29.301Z,97.90
2019-04-30T05:35:03.127Z,97.50
2019-04-30T05:37:35.990Z,97.50
2019-04-30T05:40:09.259Z,97.10
2019-04-30T05:42:42.658Z,97.30
2019-04-30T05:45:15.649Z,97.60
2019-04-30T05:47:50.619Z,97.70
2019-04-30T05:50:24.017Z,97.60
2019-04-30T05:52:56.870Z,97.40
2019-04-30T05:55:29.850Z,97.60
2019-04-30T05:58:03.231Z,97.50
2019-04-30T06:00:36.231Z,98.20
2019-04-30T06:03:09.759Z,97.80
2019-04-30T06:05:42.813Z,97.60
2019-04-30T06:08:19.183Z,97.90
2019-04-30T06:11:02.806Z,98.10
2019-04-30T06:13:49.337Z,97.70
2019-04-30T06:16:24.250Z,97.80
2019-04-30T06:18:58.502Z,97.50
2019-04-30T06:21:31.617Z,98.20
2019-04-30T06:24:04.569Z,97.50
2019-04-30T06:26:39.355Z,97.90
2019-04-30T06:29:12.370Z,97.60
2019-04-30T06:31:45.751Z,97.90
2019-04-30T06:34:19.747Z,97.70
2019-04-30T06:36:54.149Z,98.50
2019-04-30T06:39:28.858Z,98.40
2019-04-30T06:42:06.442Z,97.90
2019-04-30T06:44:41.330Z,97.80
2019-04-30T06:47:12.568Z,98.10
2019-04-30T06:49:46.048Z,98.50
2019-04-30T06:52:23.543Z,99.10
2019-04-30T06:54:55.396Z,98.90
2019-04-30T06:57:29.504Z,98.80
2019-04-30T07:00:03.271Z,99.00
2019-04-30T07:02:36.195Z,99.50
2019-04-30T07:05:10.158Z,99.90
2019-04-30T07:07:45.527Z,99.90
2019-04-30T07:10:23.108Z,99.90
2019-04-30T07:12:58.960Z,99.90
2019-04-30T07:15:33.747Z,99.90
2019-04-30T07:18:06.649Z,99.90
2019-04-30T07:20:39.935Z,99.90
2019-04-30T07:23:13.567Z,99.90
2019-04-30T07:25:46.308Z,99.90
2019-04-30T07:28:19.376Z,99.90
2019-04-30T07:31:07.649Z,99.90
2019-04-30T07:33:29.424Z,99.90
2019-04-30T07:36:02.069Z,99.90
2019-04-30T07:38:35.854Z,99.90
2019-04-30T07:41:09.743Z,99.90
2019-04-30T07:43:42.836Z,99.90
2019-04-30T07:46:15.849Z,99.90
2019-04-30T07:48:50.205Z,99.90
2019-04-30T07:51:25.926Z,99.90
2019-04-30T07:53:59.011Z,99.90
2019-04-30T07:56:37.470Z,99.90
2019-04-30T07:59:06.908Z,99.90
2019-04-30T08:02:00.779Z,99.90
2019-04-30T08:04:29.097Z,99.90
2019-04-30T08:07:03.156Z,99.90
2019-04-30T08:09:41.423Z,99.90
2019-04-30T08:12:11.657Z,99.90
2019-04-30T08:14:45.430Z,99.90
2019-04-30T08:17:20.326Z,99.90
2019-04-30T08:19:52.876Z,99.90
2019-04-30T08:22:25.988Z,99.90
2019-04-30T08:24:58.955Z,99.90
2019-04-30T08:27:31.908Z,99.90
2019-04-30T08:30:04.908Z,99.90
2019-04-30T08:32:38.685Z,99.90
2019-04-30T08:35:13.109Z,99.90
2019-04-30T08:37:46.067Z,99.90
2019-04-30T08:40:19.292Z,99.90
2019-04-30T08:42:52.787Z,99.90
2019-04-30T08:45:25.908Z,99.90
2019-04-30T08:47:59.082Z,99.90
2019-04-30T08:50:32.304Z,99.90
2019-04-30T08:53:05.247Z,99.90
2019-04-30T08:55:39.168Z,99.90
2019-04-30T08:58:15.204Z,99.90
2019-04-30T09:00:48.620Z,99.90
2019-04-30T09:03:22.149Z,99.90
2019-04-30T09:05:54.729Z,99.90
2019-04-30T09:08:29.467Z,99.90
2019-04-30T09:11:05.255Z,99.90
2019-04-30T09:13:38.951Z,99.90
2019-04-30T09:16:14.088Z,99.90
2019-04-30T09:18:49.448Z,99.90
2019-04-30T09:21:25.728Z,99.90
2019-04-30T09:23:59.455Z,99.90
2019-04-30T09:26:32.687Z,99.90
2019-04-30T09:29:05.696Z,99.90
2019-04-30T09:31:40.941Z,99.90
2019-04-30T09:34:17.764Z,99.90
2019-04-30T09:36:49.121Z,99.90
2019-04-30T09:39:23.154Z,99.90
2019-04-30T09:41:56.468Z,99.90
2019-04-30T09:44:30.872Z,99.90
2019-04-30T09:47:04.047Z,99.90
2019-04-30T09:49:39.125Z,99.90
2019-04-30T09:52:12.104Z,99.90
2019-04-30T09:54:45.048Z,99.90
2019-04-30T09:57:19.275Z,99.90
2019-04-30T09:59:52.628Z,99.90
2019-04-30T10:02:25.668Z,99.90
2019-04-30T10:04:59.016Z,99.90
2019-04-30T10:07:32.431Z,99.90
2019-04-30T10:10:05.427Z,99.90
2019-04-30T10:12:39.231Z,99.90
2019-04-30T10:15:15.189Z,99.90
2019-04-30T10:17:49.787Z,99.90
2019-04-30T10:20:22.707Z,99.90
2019-04-30T10:22:55.847Z,99.90
2019-04-30T10:25:28.808Z,99.90
2019-04-30T10:28:01.711Z,99.90
2019-04-30T10:30:34.547Z,99.90
2019-04-30T10:33:10.650Z,99.90
2019-04-30T10:35:43.507Z,99.90
2019-04-30T10:38:16.488Z,99.90
2019-04-30T10:40:49.278Z,99.90
2019-04-30T10:43:22.681Z,99.90
2019-04-30T10:45:56.272Z,99.90
2019-04-30T10:48:29.429Z,99.90
2019-04-30T10:51:02.197Z,99.90
2019-04-30T10:53:35.189Z,99.90
2019-04-30T10:56:09.729Z,99.90
2019-04-30T10:58:43.010Z,99.90
2019-04-30T11:01:16.634Z,99.90
2019-04-30T11:03:49.488Z,99.90
2019-04-30T11:06:22.748Z,99.90
2019-04-30T11:08:56.348Z,99.90
2019-04-30T11:11:30.642Z,99.90
2019-04-30T11:14:03.688Z,99.90
2019-04-30T11:16:37.049Z,99.90
2019-04-30T11:19:10.226Z,99.90
2019-04-30T11:21:44.109Z,99.90
2019-04-30T11:24:19.398Z,99.90
2019-04-30T11:26:52.740Z,99.90
2019-04-30T11:29:26.583Z,99.90
2019-04-30T11:32:02.033Z,99.90
2019-04-30T11:34:35.369Z,99.90
2019-04-30T11:37:08.788Z,99.90
2019-04-30T11:39:42.189Z,99.90
2019-04-30T11:42:15.548Z,99.90
2019-04-30T11:44:50.748Z,99.90
2019-04-30T11:47:23.668Z,99.90
2019-04-30T11:49:56.508Z,99.90
2019-04-30T11:52:29.411Z,99.90
2019-04-30T11:55:02.773Z,99.90
2019-04-30T11:57:35.875Z,99.90
2019-04-30T12:00:10.780Z,99.90
2019-04-30T12:02:44.848Z,99.90
2019-04-30T12:05:20.603Z,99.90
2019-04-30T12:07:59.715Z,99.90
2019-04-30T12:10:43.228Z,99.90
2019-04-30T12:13:27.329Z,99.90
2019-04-30T12:16:00.929Z,99.90
2019-04-30T12:18:33.888Z,99.90
2019-04-30T12:21:06.867Z,99.90
2019-04-30T12:23:39.867Z,99.90
2019-04-30T12:26:12.968Z,99.90
2019-04-30T12:28:45.892Z,99.90
2019-04-30T12:31:19.049Z,99.90
2019-04-30T12:33:51.990Z,99.90
2019-04-30T12:36:25.508Z,99.90
2019-04-30T12:38:58.376Z,99.90
2019-04-30T12:41:31.427Z,99.90
2019-04-30T12:44:04.290Z,99.90
2019-04-30T12:46:38.745Z,99.90
2019-04-30T12:49:13.568Z,99.90
2019-04-30T12:51:50.582Z,99.90
2019-04-30T12:54:23.408Z,99.90
2019-04-30T12:57:16.015Z,99.90
2019-04-30T12:59:49.167Z,99.90
2019-04-30T13:02:22.169Z,99.90
2019-04-30T13:04:54.988Z,99.90
2019-04-30T13:07:30.274Z,99.90
2019-04-30T13:10:03.285Z,99.90
2019-04-30T13:12:37.347Z,99.90
2019-04-30T13:15:11.587Z,99.90
2019-04-30T13:17:44.627Z,99.90
2019-04-30T13:20:21.741Z,99.90
2019-04-30T13:22:55.028Z,99.90
2019-04-30T13:25:35.022Z,99.90
2019-04-30T13:28:04.090Z,99.90
2019-04-30T13:30:39.606Z,99.90
2019-04-30T13:33:14.268Z,99.90
2019-04-30T13:35:48.900Z,99.90
2019-04-30T13:38:26.208Z,99.90
2019-04-30T13:41:08.747Z,99.90
2019-04-30T13:43:53.399Z,99.90
2019-04-30T13:46:28.357Z,99.90
2019-04-30T13:49:01.176Z,99.90
2019-04-30T13:51:34.072Z,99.90
2019-04-30T13:54:07.336Z,99.90
2019-04-30T13:56:40.248Z,99.90
2019-04-30T13:59:13.227Z,99.90
2019-04-30T14:01:48.826Z,99.90
2019-04-30T14:04:22.769Z,99.90
2019-04-30T14:06:55.387Z,99.90
2019-04-30T14:09:32.835Z,99.90
2019-04-30T14:12:05.790Z,99.90
2019-04-30T14:14:39.602Z,99.90
2019-04-30T14:17:12.743Z,99.90
2019-04-30T14:19:45.948Z,99.90
2019-04-30T14:22:19.596Z,99.90
2019-04-30T14:24:53.057Z,99.90
2019-04-30T14:27:25.908Z,99.90
2019-04-30T14:29:59.426Z,99.90
2019-04-30T14:32:32.487Z,99.90
2019-04-30T14:35:05.657Z,99.90
2019-04-30T14:37:39.190Z,99.90
2019-04-30T14:40:13.346Z,99.90
2019-04-30T14:43:03.582Z,99.90
2019-04-30T14:45:55.184Z,99.90
2019-04-30T14:48:40.868Z,99.90
2019-04-30T14:51:13.976Z,99.90
2019-04-30T14:53:49.003Z,99.90
2019-04-30T14:56:23.987Z,99.90
2019-04-30T14:59:14.507Z,99.90
2019-04-30T15:01:51.882Z,99.90
2019-04-30T15:04:25.267Z,99.90
2019-04-30T15:06:58.815Z,99.90
2019-04-30T15:09:31.908Z,99.90
2019-04-30T15:12:04.828Z,99.90
2019-04-30T15:14:38.838Z,99.90
2019-04-30T15:17:12.576Z,99.90
2019-04-30T15:19:45.548Z,99.90
2019-04-30T15:22:19.108Z,99.90
2019-04-30T15:24:52.148Z,99.90
2019-04-30T15:27:25.788Z,99.90
2019-04-30T15:29:58.676Z,99.90
2019-04-30T15:32:31.755Z,99.90
2019-04-30T15:35:04.588Z,99.90
2019-04-30T15:37:39.127Z,99.90
2019-04-30T15:40:12.268Z,99.90
2019-04-30T15:42:46.850Z,99.90
2019-04-30T15:45:19.968Z,99.90
2019-04-30T15:47:53.067Z,99.90
2019-04-30T15:50:26.252Z,99.90
2019-04-30T15:52:59.528Z,99.90
2019-04-30T15:55:33.327Z,99.90
2019-04-30T15:58:09.326Z,99.90
2019-04-30T16:00:42.396Z,99.90
2019-04-30T16:03:20.131Z,99.90
2019-04-30T16:05:54.875Z,99.90
2019-04-30T16:08:32.175Z,99.90
2019-04-30T16:11:08.259Z,99.90
2019-04-30T16:13:58.947Z,99.90
2019-04-30T16:16:33.589Z,99.90
2019-04-30T16:19:06.496Z,99.90
2019-04-30T16:21:39.371Z,99.90
2019-04-30T16:24:12.808Z,99.90
2019-04-30T16:26:49.417Z,99.90
2019-04-30T16:29:20.849Z,99.90
2019-04-30T16:31:53.888Z,99.90
2019-04-30T16:34:30.123Z,99.90
2019-04-30T16:37:02.040Z,99.90
2019-04-30T16:39:35.930Z,99.90
2019-04-30T16:42:09.177Z,99.90
2019-04-30T16:44:42.620Z,99.90
2019-04-30T16:47:16.923Z,99.90
2019-04-30T16:49:50.319Z,99.90
2019-04-30T16:52:23.872Z,99.90
2019-04-30T16:54:57.312Z,99.90
2019-04-30T16:57:30.439Z,99.90
2019-04-30T17:00:05.052Z,99.90
2019-04-30T17:02:39.632Z,99.90
2019-04-30T17:05:14.252Z,99.90
2019-04-30T17:08:09.310Z,99.90
2019-04-30T17:10:43.335Z,99.90
2019-04-30T17:13:20.911Z,99.90
2019-04-30T17:16:11.671Z,99.90
2019-04-30T17:18:45.230Z,99.90
2019-04-30T17:21:19.677Z,99.90
2019-04-30T17:23:53.440Z,99.90
2019-04-30T17:26:26.351Z,99.90
2019-04-30T17:28:59.922Z,99.90
2019-04-30T17:31:32.994Z,99.90
2019-04-30T17:34:06.092Z,99.90
2019-04-30T17:36:39.687Z,99.90
2019-04-30T17:39:14.968Z,99.90
2019-04-30T17:41:47.848Z,99.90
2019-04-30T17:44:21.109Z,99.90
2019-04-30T17:46:54.077Z,99.90
2019-04-30T17:49:26.891Z,99.90
2019-04-30T17:51:59.869Z,99.90
2019-04-30T17:54:32.789Z,99.90
2019-04-30T17:57:05.848Z,99.90
2019-04-30T17:59:38.908Z,99.90
2019-04-30T18:02:13.610Z,99.90
2019-04-30T18:04:46.709Z,99.90
2019-04-30T18:07:19.852Z,99.90
2019-04-30T18:09:54.447Z,99.90
2019-04-30T18:12:29.234Z,99.90
2019-04-30T18:15:02.328Z,99.90
2019-04-30T18:17:35.188Z,99.90
2019-04-30T18:20:15.868Z,99.90
2019-04-30T18:22:50.292Z,99.90
2019-04-30T18:25:32.593Z,99.90
2019-04-30T18:28:06.509Z,99.90
2019-04-30T18:30:41.008Z,99.90
2019-04-30T18:33:14.033Z,99.90
2019-04-30T18:35:48.685Z,99.90
2019-04-30T18:38:21.566Z,99.90
2019-04-30T18:40:54.420Z,99.90
2019-04-30T18:43:28.741Z,99.90
2019-04-30T18:46:02.174Z,99.90
2019-04-30T18:48:35.099Z,99.90
2019-04-30T18:51:23.726Z,99.90
2019-04-30T18:53:49.350Z,99.90
2019-04-30T18:56:24.778Z,99.90
2019-04-30T18:58:58.664Z,99.90
2019-04-30T19:01:31.921Z,99.90
2019-04-30T19:04:04.926Z,99.90
2019-04-30T19:06:37.952Z,99.90
2019-04-30T19:09:10.712Z,99.90
2019-04-30T19:11:50.953Z,99.90
2019-04-30T19:14:26.461Z,99.90
2019-04-30T19:16:59.599Z,99.90
2019-04-30T19:19:43.751Z,99.90
2019-04-30T19:22:18.693Z,99.90
2019-04-30T19:24:58.115Z,99.90
2019-04-30T19:27:26.268Z,99.90
2019-04-30T19:29:59.507Z,99.90
2019-04-30T19:32:32.430Z,99.90
2019-04-30T19:35:05.671Z,99.90
2019-04-30T19:37:40.388Z,99.90
2019-04-30T19:40:13.688Z,99.90
2019-04-30T19:42:48.880Z,99.90
2019-04-30T19:45:21.208Z,99.90
2019-04-30T19:47:54.045Z,99.90
2019-04-30T19:50:26.910Z,99.90
2019-04-30T19:53:00.089Z,99.90
2019-04-30T19:55:33.108Z,99.90
2019-04-30T19:58:06.655Z,99.90
2019-04-30T20:00:39.629Z,99.90
2019-04-30T20:03:12.666Z,99.90
2019-04-30T20:05:45.708Z,99.90
2019-04-30T20:08:19.836Z,99.90
2019-04-30T20:10:52.969Z,99.90
2019-04-30T20:13:33.760Z,99.90
2019-04-30T20:16:00.828Z,99.90
2019-04-30T20:18:34.034Z,99.90
2019-04-30T20:21:09.250Z,99.90
2019-04-30T20:23:42.709Z,99.90
2019-04-30T20:26:15.535Z,99.90
2019-04-30T20:28:48.819Z,99.90
2019-04-30T20:31:21.827Z,99.90
2019-04-30T20:33:54.868Z,99.90
2019-04-30T20:36:28.870Z,99.90
2019-04-30T20:39:08.147Z,99.90
2019-04-30T20:41:41.268Z,99.90
2019-04-30T20:44:14.335Z,99.90
2019-04-30T20:46:49.075Z,99.90
2019-04-30T20:49:21.947Z,99.90
2019-04-30T20:51:56.140Z,99.90
2019-04-30T20:54:29.492Z,99.90
2019-04-30T20:57:02.301Z,99.90
2019-04-30T20:59:35.207Z,99.90
2019-04-30T21:02:08.548Z,99.90
2019-04-30T21:04:41.508Z,99.90
2019-04-30T21:07:14.368Z,99.90
2019-04-30T21:09:48.087Z,99.90
2019-04-30T21:12:20.827Z,99.90
2019-04-30T21:14:53.830Z,99.90
2019-04-30T21:17:26.829Z,99.90
2019-04-30T21:20:01.050Z,99.90
2019-04-30T21:22:34.568Z,99.90
2019-04-30T21:25:09.316Z,99.90
2019-04-30T21:27:43.047Z,99.90
2019-04-30T21:30:16.248Z,99.90
2019-04-30T21:32:55.368Z,99.90
2019-04-30T21:35:28.027Z,99.90
2019-04-30T21:38:02.681Z,99.90
2019-04-30T21:40:36.759Z,99.90
2019-04-30T21:43:10.276Z,99.90
2019-04-30T21:45:43.167Z,99.90
2019-04-30T21:48:16.047Z,99.90
2019-04-30T21:50:49.734Z,99.90
2019-04-30T21:53:23.235Z,99.90
2019-04-30T21:55:57.027Z,99.90
2019-04-30T21:58:30.088Z,99.90
2019-04-30T22:01:06.034Z,99.90
2019-04-30T22:03:39.578Z,99.90
2019-04-30T22:06:12.967Z,99.90
2019-04-30T22:08:46.008Z,99.90
2019-04-30T22:11:19.760Z,99.90
2019-04-30T22:13:53.268Z,99.90
2019-04-30T22:16:26.195Z,99.90
2019-04-30T22:18:59.216Z,99.90
2019-04-30T22:21:32.088Z,99.90
2019-04-30T22:24:04.928Z,99.90
2019-04-30T22:26:37.947Z,99.90
2019-04-30T22:29:11.667Z,99.90
2019-04-30T22:31:44.567Z,99.90
2019-04-30T22:34:17.675Z,99.90
2019-04-30T22:36:51.328Z,99.90
2019-04-30T22:39:31.867Z,99.90
2019-04-30T22:42:04.654Z,99.90
2019-04-30T22:44:37.668Z,99.90
2019-04-30T22:47:12.247Z,99.90
2019-04-30T22:49:45.968Z,99.90
2019-04-30T22:52:21.726Z,99.90
2019-04-30T22:54:53.527Z,99.90
2019-04-30T22:57:26.756Z,99.90
2019-04-30T22:59:59.667Z,99.90
2019-04-30T23:02:37.528Z,99.90
2019-04-30T23:05:11.968Z,99.90
2019-04-30T23:07:44.975Z,99.90
2019-04-30T23:10:18.247Z,99.90
2019-04-30T23:12:51.210Z,99.90
2019-04-30T23:15:24.147Z,99.90
2019-04-30T23:17:57.113Z,99.90
2019-04-30T23:20:30.408Z,99.90
2019-04-30T23:23:03.948Z,99.90
2019-04-30T23:25:37.428Z,99.90
2019-04-30T23:28:10.206Z,99.90
2019-04-30T23:30:43.088Z,99.90
2019-04-30T23:33:16.511Z,99.90
2019-04-30T23:35:49.456Z,99.90
2019-04-30T23:38:22.748Z,99.90
2019-04-30T23:40:56.328Z,99.90
2019-04-30T23:43:29.268Z,99.90
2019-04-30T23:46:02.687Z,99.90
2019-04-30T23:48:35.929Z,99.90
2019-04-30T23:51:08.787Z,99.90
2019-04-30T23:53:41.609Z,99.90
2019-04-30T23:56:14.644Z,99.90
2019-04-30T23:58:47.675Z,99.90
